»·PEaware :: N4922Z 0CA4-KSAN

N4922Z :: 0CA4-KSAN

FLIGHT INFORMATION

Flight Status: Arrived
Operator: Privately registered:
United States
More flights under this callsign
Pilot: William N. (15320)
Aircraft: MITSUBISHI MU-2 MARQUISE
(MU2)
More flights by this aircraft type
Origin: 0CA4 Shepherd Ranch
United States
Destination: KSAN San Diego Intl-Lindbergh
United States
More flights between these airports :: More routes between these airports
Route: +RZS KWANG VTU V208 SXC V208 LAX118R CARDI MZB320R MZB
File this flight plan on PilotEdge
Remarks:
Altitude:
(Current/Filed)
9,000ft
Speed:
(Current/Filed)
275kts
Departed: 05-May-18 01:57 PM
Arrived: 05-May-18 03:06 PM
Distance/Time
Traveled:
183nm/1:09
Distance/Time
To Go:
Arrived

Flight Plot

Page will automatically refresh every two minutes.

Flight plan parsing failed; only flown route is shown


Map Options




Map Legend


Flown Route
Filed Route
Departure Airport
Arrival Airport
Navaid (VOR, NDB)
Fix

Horizontal Profiles

Position Reports

Time Latitude Longitude Heading Altitude Ground
Speed
05-May-18 13:47 34.624335 -120.056311 254 706ft 0kts
05-May-18 13:48 34.624335 -120.056311 254 706ft 0kts
05-May-18 13:49 34.624335 -120.056311 254 706ft 0kts
05-May-18 13:50 34.624335 -120.056311 254 706ft 0kts
05-May-18 13:51 34.624335 -120.056311 254 706ft 0kts
05-May-18 13:52 34.624335 -120.056311 254 706ft 0kts
05-May-18 13:53 34.624335 -120.056311 254 706ft 0kts
05-May-18 13:54 34.624335 -120.056311 254 706ft 0kts
05-May-18 13:55 34.624335 -120.056311 254 706ft 0kts
05-May-18 13:55 34.624335 -120.056311 254 706ft 0kts
05-May-18 13:56 34.617974 -120.081035 252 1297ft 151kts
05-May-18 13:57 34.597662 -120.132038 225 3452ft 185kts
05-May-18 13:58 34.548333 -120.159815 165 4936ft 216kts
05-May-18 13:59 34.489889 -120.174514 247 4381ft 280kts
05-May-18 14:00 34.487338 -120.266775 296 4152ft 275kts
05-May-18 14:01 34.552299 -120.303685 354 4203ft 265kts
05-May-18 14:02 34.612258 -120.261998 58 4008ft 265kts
05-May-18 14:03 34.633832 -120.179351 80 3969ft 255kts
05-May-18 14:04 34.639489 -120.095712 111 4089ft 242kts
05-May-18 14:05 34.597708 -120.051547 152 6342ft 174kts
05-May-18 14:06 34.557801 -120.023331 151 7964ft 177kts
05-May-18 14:07 34.507842 -119.985957 148 7979ft 236kts
05-May-18 14:08 34.451336 -119.938812 146 7960ft 255kts
05-May-18 14:09 34.393570 -119.887166 145 7954ft 260kts
05-May-18 14:10 34.336022 -119.837168 147 8702ft 236kts
05-May-18 14:11 34.280326 -119.792225 147 8956ft 251kts
05-May-18 14:12 34.221709 -119.742932 146 8954ft 261kts
05-May-18 14:13 34.161483 -119.692504 146 8954ft 266kts
05-May-18 14:14 34.101875 -119.645146 148 8950ft 267kts
05-May-18 14:15 34.039210 -119.597048 148 8944ft 268kts
05-May-18 14:16 33.976700 -119.547844 149 8944ft 268kts
05-May-18 14:17 33.913600 -119.500403 128 8926ft 271kts
05-May-18 14:18 33.876705 -119.421444 121 8955ft 271kts
05-May-18 14:19 33.838784 -119.343753 122 8954ft 272kts
05-May-18 14:20 33.801449 -119.267992 122 8954ft 271kts
05-May-18 14:21 33.763118 -119.189867 121 8954ft 271kts
05-May-18 14:22 33.724691 -119.111763 122 8954ft 271kts
05-May-18 14:23 33.686327 -119.034014 122 8954ft 271kts
05-May-18 14:24 33.647828 -118.956039 122 8954ft 271kts
05-May-18 14:25 33.609378 -118.878462 121 8991ft 271kts
05-May-18 14:26 33.570854 -118.800680 121 8991ft 272kts
05-May-18 14:27 33.533591 -118.725150 122 8991ft 272kts
05-May-18 14:28 33.495154 -118.647931 122 8999ft 270kts
05-May-18 14:29 33.456408 -118.570733 122 8999ft 270kts
05-May-18 14:30 33.417800 -118.493687 122 8999ft 270kts
05-May-18 14:31 33.380947 -118.415445 99 8972ft 273kts
05-May-18 14:32 33.376675 -118.326427 106 9000ft 271kts
05-May-18 14:33 33.352301 -118.241115 103 9004ft 275kts
05-May-18 14:34 33.339197 -118.150476 100 8999ft 277kts
05-May-18 14:35 33.326755 -118.059213 100 8999ft 278kts
05-May-18 14:36 33.317205 -117.988233 99 8999ft 278kts
05-May-18 14:37 33.317205 -117.988233 99 8999ft 278kts
05-May-18 14:38 33.311418 -117.946301 100 8999ft 278kts
05-May-18 14:39 33.298895 -117.854912 100 8999ft 278kts
05-May-18 14:40 33.286545 -117.763903 100 8999ft 278kts
05-May-18 14:41 33.275176 -117.672691 100 8998ft 276kts
05-May-18 14:42 33.262958 -117.583385 118 8975ft 271kts
05-May-18 14:44 33.206854 -117.526748 119 8987ft 270kts
05-May-18 14:45 33.162365 -117.454872 133 9001ft 270kts
05-May-18 14:46 33.103573 -117.403162 156 8425ft 259kts
05-May-18 14:47 33.040479 -117.368253 155 7004ft 232kts
05-May-18 14:48 32.990949 -117.342587 169 7003ft 189kts
05-May-18 14:49 32.939145 -117.319755 149 7012ft 212kts
05-May-18 14:50 32.885443 -117.286411 155 7011ft 223kts
05-May-18 14:51 32.829158 -117.253147 155 7018ft 228kts
05-May-18 14:52 32.796930 -117.193820 101 7005ft 229kts
05-May-18 14:53 32.788487 -117.123419 101 7003ft 201kts
05-May-18 14:54 32.781429 -117.061467 101 7005ft 180kts
05-May-18 14:55 32.774842 -117.001997 101 7013ft 186kts
05-May-18 14:56 32.767817 -116.939541 101 7011ft 195kts
05-May-18 14:57 32.760650 -116.876235 101 7011ft 193kts
05-May-18 14:58 32.717521 -116.871783 243 4480ft 242kts
05-May-18 14:59 32.696654 -116.937451 249 3968ft 179kts
05-May-18 15:00 32.690211 -116.989594 281 3623ft 146kts
05-May-18 15:01 32.698811 -117.034059 282 2814ft 139kts
05-May-18 15:02 32.707567 -117.077871 282 1794ft 132kts
05-May-18 15:03 32.716145 -117.117756 286 1020ft 125kts
05-May-18 15:04 32.725206 -117.155344 287 529ft 106kts
05-May-18 15:05 32.733141 -117.188132 290 25ft 96kts
05-May-18 15:06 32.734829 -117.198377 175 16ft 0kts
05-May-18 15:07 32.734433 -117.197524 106 16ft 15kts
05-May-18 15:08 32.733091 -117.194872 107 16ft 0kts

Navigation Log

Ident Type
Flight plan parsing failed, navigation log unavailable